Data for 06/23/2015

Time Sea-Level Adjusted Pressure Absolute Pressure Temperature Relative Humidity Dew Point   
(mb) (inHg) (mb) (inHg) (C) (F) (%) (C) (F)
00:05 1021 30.15 851 25.13 16 60.9 63 9 48.1
00:10 1021 30.15 851 25.13 15.9 60.5 63 8.9 48
00:15 1022 30.18 851 25.13 15.8 60.4 63 8.9 48
00:20 1022 30.18 851 25.13 15.7 60.3 63 8.7 47.7
00:25 1022 30.18 851 25.13 15.6 60.1 62 8.5 47.3
00:30 1021 30.15 851 25.13 15.5 59.9 63 8.6 47.5
00:35 1021 30.15 851 25.13 15.4 59.8 64 8.7 47.7
00:40 1021 30.15 851 25.13 15.4 59.6 65 8.9 47.9
00:45 1021 30.15 851 25.13 15.3 59.5 66 8.9 48.1
00:50 1021 30.15 851 25.13 15.2 59.3 66 8.9 48
00:55 1021 30.15 851 25.13 15.2 59.4 62 8.2 46.7
01:00 1021 30.15 851 25.13 15 59 65 8.4 47.2
01:05 1021 30.15 851 25.13 14.8 58.6 63 7.9 46.3
01:10 1022 30.18 851 25.13 14.6 58.2 64 8 46.4
01:15 1021 30.15 851 25.13 14.3 57.8 65 7.8 46.1
01:20 1021 30.15 851 25.13 14.3 57.7 63 7.5 45.5
01:25 1021 30.15 851 25.13 14.4 57.9 65 8 46.4
01:30 1021 30.15 851 25.13 14.5 58 62 7.4 45.4
01:35 1021 30.15 851 25.13 14.3 57.7 65 7.9 46.1
01:40 1021 30.15 851 25.13 14.3 57.8 61 7.1 44.7
01:45 1021 30.15 851 25.13 14.4 57.9 64 7.6 45.7
01:50 1021 30.15 851 25.13 14.5 58 61 7.1 44.7
01:55 1021 30.15 851 25.13 14.6 58.3 62 7.6 45.6
02:00 1021 30.15 851 25.13 14.5 58.1 63 7.7 45.8
02:05 1021 30.15 851 25.13 14.2 57.5 63 7.4 45.2
02:10 1021 30.15 851 25.13 14 57.2 63 7 44.7
02:15 1021 30.15 851 25.13 14 57.3 61 6.6 43.9
02:20 1021 30.15 851 25.13 14.1 57.3 61 6.7 44
02:25 1021 30.15 851 25.13 14 57.3 62 6.9 44.4
02:30 1021 30.15 851 25.13 14.1 57.3 62 7 44.6
02:35 1021 30.15 851 25.13 13.9 57 63 7 44.7
02:40 1021 30.15 851 25.13 13.8 56.9 63 7 44.6
02:45 1021 30.15 851 25.13 13.5 56.3 64 6.9 44.4
02:50 1021 30.15 851 25.13 13.3 56 64 6.7 44
02:55 1021 30.15 851 25.13 13.3 55.9 64 6.6 43.9
03:00 1021 30.15 851 25.13 13.4 56 64 6.7 44
03:05 1021 30.15 851 25.13 13.3 55.9 64 6.6 43.8
03:10 1021 30.15 851 25.13 13.3 56 63 6.5 43.7
03:15 1021 30.15 851 25.13 13.2 55.7 65 6.7 44.1
03:20 1021 30.15 851 25.13 13 55.4 66 6.9 44.3
03:25 1021 30.15 851 25.13 12.9 55.2 66 6.8 44.2
03:30 1021 30.15 851 25.13 12.9 55.2 66 6.8 44.2
03:35 1022 30.18 851 25.13 12.8 55.1 67 6.8 44.3
03:40 1022 30.18 851 25.13 12.6 54.7 67 6.7 44
03:45 1022 30.18 851 25.13 12.7 54.8 67 6.7 44
03:50 1022 30.18 851 25.13 12.6 54.7 65 6.2 43.2
03:55 1022 30.18 851 25.13 12.6 54.6 66 6.3 43.4
04:00 1022 30.18 851 25.13 12.6 54.7 64 6.1 43
04:05 1022 30.18 851 25.13 12.6 54.7 64 6.1 43
04:10 1022 30.18 851 25.13 12.4 54.4 65 6.2 43.1
04:15 1022 30.18 851 25.13 12.3 54.2 65 5.9 42.6
04:20 1022 30.18 851 25.13 12.4 54.2 64 5.7 42.3
04:25 1022 30.18 851 25.13 12.2 53.9 65 5.8 42.4
04:30 1022 30.18 851 25.13 12 53.6 65 5.6 42.1
04:35 1022 30.18 851 25.13 11.8 53.3 65 5.6 42
04:40 1022 30.18 851 25.13 11.8 53.2 65 5.6 42
04:45 1022 30.18 851 25.13 11.7 53 66 5.5 41.9
04:50 1022 30.18 851 25.13 11.8 53.3 65 5.5 41.9
04:55 1022 30.18 852 25.16 12.4 54.3 63 5.7 42.2
05:00 1022 30.18 852 25.16 12.6 54.7 62 5.6 42.1
05:05 1022 30.18 852 25.16 12.4 54.3 63 5.5 41.9
05:10 1022 30.18 852 25.16 12.1 53.8 63 5.4 41.7
05:15 1022 30.18 852 25.16 11.8 53.3 64 5.3 41.5
05:20 1022 30.18 852 25.16 11.8 53.2 64 5.3 41.5
05:25 1022 30.18 852 25.16 11.8 53.2 64 5.3 41.5
05:30 1022 30.18 852 25.16 11.9 53.3 63 5.1 41.3
05:35 1022 30.18 852 25.16 12.1 53.8 63 5.2 41.4
05:40 1022 30.18 852 25.16 12 53.6 64 5.4 41.6
05:45 1023 30.21 852 25.16 11.8 53.3 65 5.4 41.8
05:50 1023 30.21 852 25.16 11.7 53.1 65 5.5 41.9
05:55 1023 30.21 852 25.16 11.8 53.2 64 5.3 41.6
06:00 1023 30.21 852 25.16 12.2 53.9 63 5.4 41.6
06:05 1023 30.21 852 25.16 12.6 54.6 63 5.9 42.6
06:10 1023 30.21 852 25.16 12.7 54.8 64 6.1 43
06:15 1022 30.18 852 25.16 13 55.4 63 6.3 43.3
06:20 1022 30.18 852 25.16 13.4 56.1 62 6.3 43.4
06:25 1022 30.18 852 25.16 13.5 56.3 61 6.3 43.3
06:30 1023 30.21 852 25.16 14.2 57.5 59 6.3 43.3
06:35 1023 30.21 852 25.16 14.5 58.2 58 6.5 43.7
06:40 1023 30.21 852 25.16 14.8 58.7 58 6.6 43.9
06:45 1023 30.21 852 25.16 14.9 58.8 57 6.6 43.9
06:50 1023 30.21 852 25.16 15.4 59.7 56 6.6 43.9
06:55 1023 30.21 852 25.16 16 60.7 56 7.2 44.9
07:00 1023 30.21 852 25.16 16.1 61.1 54 7 44.7
07:05 1023 30.21 852 25.16 16.8 62.2 53 7.1 44.8
07:10 1023 30.21 852 25.16 17.3 63.1 51 7.3 45.1
07:15 1023 30.21 852 25.16 17.5 63.6 49 6.8 44.3
07:20 1023 30.21 852 25.16 18 64.3 46 6.3 43.4
07:25 1023 30.21 852 25.16 17.8 64.1 48 6.8 44.3
07:30 1023 30.21 852 25.16 17.9 64.1 48 6.9 44.5
07:35 1023 30.21 852 25.16 18.6 65.5 44 6.2 43.1
07:40 1023 30.21 852 25.16 18.5 65.3 46 6.8 44.2
07:45 1023 30.21 852 25.16 18.8 65.9 45 6.9 44.3
07:50 1023 30.21 852 25.16 19.2 66.6 42 6.3 43.3
07:55 1023 30.21 852 25.16 19.6 67.2 42 6.5 43.7
08:00 1023 30.21 852 25.16 19.3 66.7 42 6.3 43.4
08:05 1023 30.21 852 25.16 19.5 67.1 43 6.9 44.4
08:10 1023 30.21 852 25.16 19.1 66.4 43 6.3 43.4
08:15 1023 30.21 852 25.16 19.3 66.7 43 6.5 43.6
08:20 1023 30.21 852 25.16 19.6 67.4 41 6.1 43
08:25 1023 30.21 852 25.16 20.4 68.6 39 6 42.7
08:30 1023 30.21 852 25.16 20.9 69.6 39 6.5 43.7
08:35 1023 30.21 852 25.16 20.3 68.6 40 6.6 43.8
08:40 1023 30.21 852 25.16 21 69.8 38 6.2 43.1
08:45 1023 30.21 852 25.16 21.2 70.1 37 6.1 43
08:50 1023 30.21 852 25.16 21.9 71.4 35 5.9 42.6
08:55 1023 30.21 852 25.16 22.1 71.8 36 6.4 43.4
09:00 1023 30.21 852 25.16 22 71.6 37 6.7 44
09:05 1023 30.21 852 25.16 22.1 71.7 36 6.4 43.6
09:10 1023 30.21 852 25.16 22.4 72.2 35 6.4 43.5
09:15 1023 30.21 852 25.16 22.5 72.4 34 6.2 43.1
09:20 1022 30.18 852 25.16 22.7 72.9 34 6.2 43.1
09:25 1022 30.18 852 25.16 22.5 72.5 35 6.6 43.9
09:30 1022 30.18 851 25.13 22.9 73.1 33 6.1 43
09:35 1022 30.18 851 25.13 23.1 73.5 34 6.5 43.6
09:40 1022 30.18 851 25.13 22.6 72.6 34 6 42.8
09:45 1022 30.18 851 25.13 22.1 71.7 36 6.7 44
09:50 1022 30.18 851 25.13 22.9 73.2 33 6 42.7
09:55 1022 30.18 851 25.13 23 73.4 33 6 42.8
10:00 1022 30.18 851 25.13 22.9 73.2 31 5.2 41.4
10:05 1022 30.18 851 25.13 23 73.4 33 6.2 43.2
10:10 1022 30.18 851 25.13 23.4 74.1 32 6.2 43.1
10:15 1022 30.18 851 25.13 23.6 74.5 32 6 42.8
10:20 1022 30.18 851 25.13 24.4 75.8 30 6 42.8
10:25 1022 30.18 851 25.13 23.6 74.5 31 5.9 42.7
10:30 1022 30.18 851 25.13 23.6 74.5 30 5 41.1
10:35 1022 30.18 851 25.13 23.4 74.1 32 6.2 43.1
10:40 1022 30.18 851 25.13 23.3 73.9 31 5.5 41.8
10:45 1022 30.18 851 25.13 24.5 76.2 29 5.7 42.2
10:50 1021 30.15 851 25.13 24.1 75.5 28 4.5 40.1
10:55 1021 30.15 851 25.13 23.7 74.6 28 4.3 39.7
11:00 1021 30.15 851 25.13 25.3 77.6 25 4.2 39.6
11:05 1021 30.15 851 25.13 24.7 76.4 26 4 39.3
11:10 1021 30.15 851 25.13 24.8 76.7 26 4.2 39.6
11:15 1021 30.15 850 25.1 25.1 77.2 26 4.4 39.8
11:20 1021 30.15 850 25.1 25.6 78.1 24 3.5 38.4
11:25 1021 30.15 850 25.1 25.7 78.2 24 3.9 39
11:30 1021 30.15 850 25.1 25.7 78.2 23 3.4 38
11:35 1021 30.15 850 25.1 26 78.7 24 4.3 39.8
11:40 1021 30.15 850 25.1 25.4 77.8 23 3.1 37.6
11:45 1021 30.15 850 25.1 25.1 77.2 23 2.9 37.2
11:50 1021 30.15 850 25.1 25.3 77.6 22 2.6 36.6
11:55 1021 30.15 850 25.1 25.2 77.3 22 2.3 36.1
12:00 1021 30.15 850 25.1 26.3 79.4 21 2.5 36.5
12:05 1021 30.15 850 25.1 26.5 79.8 21 2.4 36.4
12:10 1021 30.15 850 25.1 26.4 79.4 19 1.3 34.4
12:15 1021 30.15 850 25.1 26.4 79.5 16 -0.8 30.5
12:20 1021 30.15 850 25.1 26.2 79.1 16 -1.8 28.8
12:25 1021 30.15 850 25.1 26.4 79.5 18 0.1 32.1
12:30 1021 30.15 850 25.1 27.4 81.2 19 1.8 35.3
12:35 1021 30.15 850 25.1 27 80.6 18 1.3 34.4
12:40 1021 30.15 850 25.1 26.8 80.2 18 1 33.9
12:45 1021 30.15 850 25.1 26.6 79.9 20 2.1 35.8
12:50 1021 30.15 850 25.1 26.6 79.9 19 1.7 35.1
12:55 1021 30.15 850 25.1 26 78.9 21 2.2 36
13:00 1021 30.15 850 25.1 26.2 79.2 20 2 35.6
13:05 1021 30.15 850 25.1 26.1 79.1 20 1.9 35.4
13:10 1020 30.12 850 25.1 27 80.5 20 2.4 36.3
13:15 1020 30.12 850 25.1 27.1 80.8 20 2.2 35.9
13:20 1020 30.12 850 25.1 27.3 81.2 19 2.1 35.9
13:25 1020 30.12 850 25.1 27.7 81.9 18 1.8 35.3
13:30 1020 30.12 850 25.1 28 82.3 19 2.2 35.9
13:35 1020 30.12 849 25.07 28.2 82.8 18 2.1 35.8
13:40 1020 30.12 849 25.07 28.2 82.7 18 1.6 34.9
13:45 1020 30.12 849 25.07 28 82.4 18 2.1 35.9
13:50 1020 30.12 849 25.07 28 82.4 17 1.3 34.3
13:55 1020 30.12 849 25.07 27.3 81.1 20 2.3 36.1
14:00 1020 30.12 849 25.07 26.7 80 19 1.5 34.7
14:05 1020 30.12 849 25.07 27.3 81.2 19 2.1 35.7
14:10 1020 30.12 849 25.07 27.4 81.3 17 0.8 33.4
14:15 1020 30.12 849 25.07 28.3 82.9 17 1.3 34.4
14:20 1020 30.12 849 25.07 28.7 83.7 18 2.2 36
14:25 1020 30.12 849 25.07 28.5 83.2 18 2.3 36.1
14:30 1020 30.12 849 25.07 28.6 83.4 17 1.1 34
14:35 1020 30.12 849 25.07 27.9 82.2 16 -0.1 31.8
14:40 1020 30.12 849 25.07 26.8 80.3 19 1.5 34.7
14:45 1020 30.12 849 25.07 26.6 79.9 18 0.9 33.6
14:50 1020 30.12 849 25.07 26.7 80.1 18 0.8 33.4
14:55 1020 30.12 849 25.07 28 82.4 16 0.5 33
15:00 1020 30.12 849 25.07 28.2 82.7 15 -0.4 31.3
15:05 1019 30.09 849 25.07 27.7 81.9 17 0.8 33.4
15:10 1019 30.09 849 25.07 27.3 81.1 17 0.6 33.1
15:15 1019 30.09 849 25.07 27.9 82.2 15 -0.7 30.7
15:20 1019 30.09 849 25.07 27.4 81.4 17 0.5 32.8
15:25 1019 30.09 849 25.07 27.6 81.7 16 -0.3 31.5
15:30 1019 30.09 849 25.07 28.9 84 15 0.3 32.6
15:35 1019 30.09 848 25.04 28.7 83.7 16 1 33.8
15:40 1019 30.09 848 25.04 28.5 83.3 15 0 32.1
15:45 1019 30.09 848 25.04 28.2 82.8 17 0.8 33.5
15:50 1019 30.09 848 25.04 27.6 81.6 17 0.6 33.1
15:55 1019 30.09 848 25.04 28.7 83.6 15 -0.5 31.1
16:00 1019 30.09 848 25.04 28.8 83.9 15 -0.4 31.3
16:05 1019 30.09 848 25.04 29.1 84.4 14 -0.3 31.4
16:10 1019 30.09 848 25.04 28.2 82.8 15 -0.7 30.8
16:15 1019 30.09 848 25.04 28.4 83 15 -0.3 31.5
16:20 1019 30.09 848 25.04 27.5 81.4 17 0.3 32.5
16:25 1019 30.09 848 25.04 28.1 82.5 15 -0.3 31.5
16:30 1019 30.09 848 25.04 28.4 83 15 -0.4 31.2
16:35 1019 30.09 848 25.04 28.2 82.7 15 -0.7 30.8
16:40 1019 30.09 848 25.04 28.4 83.1 14 -1.2 29.8
16:45 1019 30.09 848 25.04 28.9 84 15 0.2 32.4
16:50 1019 30.09 848 25.04 29.1 84.4 14 -0.5 31.2
16:55 1019 30.09 848 25.04 28.7 83.7 14 -0.9 30.4
17:00 1019 30.09 848 25.04 28.7 83.6 15 -0.4 31.3
17:05 1019 30.09 848 25.04 28.5 83.3 14 -0.8 30.6
17:10 1019 30.09 848 25.04 28.4 83.1 18 1.7 35.1
17:15 1019 30.09 848 25.04 28.1 82.5 14 -1.4 29.4
17:20 1018 30.06 848 25.04 28.2 82.7 15 -0.4 31.2
17:25 1018 30.06 848 25.04 28.2 82.7 16 0.1 32.2
17:30 1018 30.06 848 25.04 27.4 81.3 17 0.1 32.1
17:35 1018 30.06 848 25.04 26.5 79.8 17 -0.1 31.9
17:40 1018 30.06 848 25.04 26.4 79.5 17 -0.1 31.9
17:45 1018 30.06 848 25.04 26.7 80 17 -0.1 31.8
17:50 1018 30.06 848 25.04 27 80.7 17 -0.2 31.7
17:55 1018 30.06 848 25.04 27.4 81.2 15 -0.9 30.4
18:00 1018 30.06 847 25.01 27.7 81.8 15 -0.9 30.4
18:05 1018 30.06 847 25.01 27.6 81.7 15 -0.8 30.5
18:10 1018 30.06 847 25.01 27.1 80.7 16 -0.6 30.9
18:15 1018 30.06 847 25.01 26.8 80.2 18 0.4 32.7
18:20 1018 30.06 847 25.01 26.8 80.2 16 -0.6 30.9
18:25 1018 30.06 847 25.01 26.8 80.2 17 0 32.1
18:30 1018 30.06 847 25.01 26.9 80.4 17 -0 31.9
18:35 1018 30.06 847 25.01 26.5 79.8 17 -0.2 31.7
18:40 1018 30.06 847 25.01 26.3 79.3 18 0 32
18:45 1018 30.06 847 25.01 26.2 79.2 17 -0.5 31.1
18:50 1018 30.06 847 25.01 26.1 79 18 0.2 32.3
18:55 1018 30.06 847 25.01 26 78.8 18 0.3 32.6
19:00 1018 30.06 847 25.01 26 78.8 19 0.7 33.3
19:05 1018 30.06 847 25.01 25.8 78.5 18 0 32
19:10 1018 30.06 847 25.01 25.6 78.1 19 0.4 32.8
19:15 1018 30.06 847 25.01 25.5 77.9 19 0.5 32.9
19:20 1018 30.06 847 25.01 25.4 77.7 20 1 33.8
19:25 1018 30.06 847 25.01 25.2 77.4 20 1 33.8
19:30 1018 30.06 847 25.01 25.1 77.1 22 1.9 35.4
19:35 1018 30.06 847 25.01 24.8 76.7 24 3 37.5
19:40 1018 30.06 847 25.01 24.5 76.2 25 3.2 37.8
19:45 1018 30.06 847 25.01 24.3 75.8 26 4 39.2
19:50 1018 30.06 847 25.01 24.3 75.7 24 2.9 37.3
19:55 1018 30.06 847 25.01 24.3 75.7 24 2.8 37.1
20:00 1018 30.06 847 25.01 24.2 75.6 25 3.2 37.8
20:05 1018 30.06 847 25.01 23.9 75.1 27 4 39.2
20:10 1018 30.06 847 25.01 23.5 74.3 27 3.9 39
20:15 1018 30.06 847 25.01 23 73.5 31 5.3 41.6
20:20 1018 30.06 847 25.01 22.4 72.3 33 5.4 41.7
20:25 1018 30.06 847 25.01 21.8 71.3 33 5.1 41.2
20:30 1018 30.06 847 25.01 21.7 71 33 4.8 40.6
20:35 1018 30.06 847 25.01 21.4 70.6 33 4.6 40.2
20:40 1018 30.06 847 25.01 21.2 70.2 32 4 39.3
20:45 1018 30.06 847 25.01 21 69.7 32 3.9 39
20:50 1018 30.06 847 25.01 20.8 69.4 32 3.6 38.5
20:55 1018 30.06 847 25.01 20.9 69.6 31 3.4 38.1
21:00 1018 30.06 847 25.01 21.1 69.9 30 3.2 37.7
21:05 1018 30.06 847 25.01 21.1 70 30 3 37.4
21:10 1018 30.06 847 25.01 21 69.8 30 2.9 37.3
21:15 1018 30.06 847 25.01 20.7 69.3 30 2.9 37.2
21:20 1018 30.06 847 25.01 20.7 69.3 30 2.5 36.6
21:25 1018 30.06 848 25.04 20.9 69.6 29 2.5 36.5
21:30 1018 30.06 848 25.04 21 69.8 28 2.2 35.9
21:35 1018 30.06 847 25.01 21.1 70 28 2.2 35.9
21:40 1018 30.06 847 25.01 21.3 70.3 27 2 35.5
21:45 1018 30.06 847 25.01 21.4 70.5 27 2 35.7
21:50 1018 30.06 848 25.04 21.4 70.5 27 2 35.6
21:55 1018 30.06 848 25.04 21.4 70.5 27 2 35.7
22:00 1019 30.09 848 25.04 21.2 70.2 32 3.9 39.1
22:05 1019 30.09 848 25.04 20.9 69.6 30 3 37.4
22:10 1019 30.09 848 25.04 21 69.9 32 3.7 38.6
22:15 1019 30.09 848 25.04 21 69.8 30 3 37.5
22:20 1019 30.09 848 25.04 21.4 70.5 28 2.4 36.2
22:25 1019 30.09 848 25.04 21.4 70.6 31 3.9 39.1
22:30 1019 30.09 848 25.04 20.7 69.3 32 3.4 38.2
22:35 1019 30.09 848 25.04 20.9 69.7 30 3.1 37.5
22:40 1019 30.09 848 25.04 21 69.7 30 3 37.4
22:45 1019 30.09 848 25.04 21 69.8 31 3.2 37.8
22:50 1019 30.09 848 25.04 21.1 69.9 34 4.7 40.4
22:55 1019 30.09 848 25.04 20.3 68.5 40 6.5 43.7
23:00 1019 30.09 848 25.04 19.5 67 43 6.5 43.7
23:05 1019 30.09 848 25.04 19.1 66.3 43 6.5 43.6
23:10 1019 30.09 848 25.04 19 66.2 44 6.6 43.8
23:15 1019 30.09 848 25.04 19 66.2 44 6.5 43.6
23:20 1019 30.09 848 25.04 18.8 65.9 46 7.1 44.8
23:25 1019 30.09 848 25.04 19 66.2 46 7.1 44.7
23:30 1019 30.09 849 25.07 18.7 65.7 45 6.7 44
23:35 1019 30.09 849 25.07 18 64.4 45 6.1 43
23:40 1020 30.12 849 25.07 18 64.4 44 5.7 42.3
23:45 1020 30.12 849 25.07 18 64.3 45 6.1 43
23:50 1019 30.09 849 25.07 18 64.4 44 5.7 42.2
23:55 1019 30.09 849 25.07 17.9 64.2 45 6 42.8
24:00 1019 30.09 849 25.07 17.7 63.9 44 5.5 41.9